ADDS METAR Data INFO
IDs: Format: Raw Decoded Include TAF

Data at: 0709 UTC 19 Oct 2017

KGMJ 190655Z AUTO 00000KT 10SM CLR 09/09 A3013 RMK AO2
KGMJ 190635Z AUTO 00000KT 10SM CLR 09/08 A3013 RMK AO2
KGMJ 190615Z AUTO 00000KT 10SM CLR 10/09 A3012 RMK AO2
KGMJ 190555Z AUTO 00000KT 10SM CLR 10/09 A3012 RMK AO2
KGMJ 190535Z AUTO 00000KT 10SM CLR 11/10 A3012 RMK AO2
KGMJ 190515Z AUTO 00000KT 10SM CLR 11/10 A3012 RMK AO2
KGMJ 190455Z AUTO 00000KT 10SM CLR 11/08 A3012 RMK AO2
KGMJ 190435Z AUTO 00000KT 10SM CLR 14/10 A3011 RMK AO2
KGMJ 190415Z AUTO 00000KT 10SM CLR 11/10 A3011 RMK AO2
KGMJ 190355Z AUTO 00000KT 10SM CLR 11/09 A3011 RMK AO2
KGMJ 190335Z AUTO 00000KT 10SM CLR 12/09 A3011 RMK AO2
KGMJ 190315Z AUTO 00000KT 10SM CLR 13/09 A3010 RMK AO2
KGMJ 190255Z AUTO 00000KT 10SM CLR 13/09 A3010 RMK AO2
KGMJ 190235Z AUTO 00000KT 10SM CLR 13/10 A3011 RMK AO2
KGMJ 190215Z AUTO 00000KT 10SM CLR 16/09 A3010 RMK AO2
KGMJ 190155Z AUTO 14004KT 10SM CLR 15/09 A3010 RMK AO2
KGMJ 190135Z AUTO 00000KT 10SM CLR 15/10 A3011 RMK AO2
KGMJ 190115Z AUTO 00000KT 10SM CLR 16/09 A3010 RMK AO2
KGMJ 190055Z AUTO 00000KT 10SM CLR 16/10 A3010 RMK AO2
KGMJ 190035Z AUTO 00000KT 10SM CLR 17/09 A3010 RMK AO2
KGMJ 190015Z AUTO 00000KT 10SM CLR 18/08 A3010 RMK AO2
KGMJ 182355Z AUTO 00000KT 10SM CLR 20/08 A3009 RMK AO2
KGMJ 182335Z AUTO 17005KT 10SM CLR 21/08 A3008 RMK AO2
KGMJ 182315Z AUTO 17007KT 10SM CLR 22/08 A3008 RMK AO2
KGMJ 182255Z AUTO 17008KT 10SM CLR 23/08 A3008 RMK AO2
KGMJ 182235Z AUTO 19007KT 10SM CLR 24/08 A3008 RMK AO2
KGMJ 182215Z AUTO 19010G16KT 10SM CLR 25/07 A3008 RMK AO2
KGMJ 182155Z AUTO 20010G15KT 10SM CLR 26/08 A3008 RMK AO2
KGMJ 182135Z AUTO 19011G14KT 10SM CLR 26/08 A3008 RMK AO2
KGMJ 182115Z AUTO 18011KT 10SM CLR 26/08 A3008 RMK AO2
KGMJ 182055Z AUTO 17009G15KT 10SM CLR 26/09 A3008 RMK AO2
KGMJ 182035Z AUTO 19012G16KT 10SM CLR 25/08 A3008 RMK AO2
KGMJ 182015Z AUTO 20013KT 10SM CLR 26/08 A3008 RMK AO2
KGMJ 181955Z AUTO 20012G16KT 10SM CLR 25/08 A3008 RMK AO2
KGMJ 181935Z AUTO 20011KT 10SM CLR 25/08 A3008 RMK AO2
KGMJ 181915Z AUTO 18011KT 10SM CLR 25/09 A3009 RMK AO2
KGMJ 181855Z AUTO 18008KT 10SM CLR 25/09 A3010 RMK AO2
KGMJ 181835Z AUTO 17011G15KT 10SM CLR 23/08 A3011 RMK AO2
KGMJ 181815Z AUTO 19011G16KT 10SM CLR 23/09 A3012 RMK AO2
KGMJ 181755Z AUTO 18008KT 10SM CLR 23/09 A3013 RMK AO2
KGMJ 181735Z AUTO 18009KT 10SM CLR 22/08 A3014 RMK AO2
KGMJ 181715Z AUTO 19011G14KT 10SM CLR 22/08 A3014 RMK AO2
KGMJ 181655Z AUTO 19014G17KT 10SM CLR 21/08 A3015 RMK AO2
KGMJ 181635Z AUTO 20009KT 10SM CLR 21/08 A3016 RMK AO2
KGMJ 181615Z AUTO 19009KT 10SM CLR 20/08 A3016 RMK AO2
KGMJ 181555Z AUTO 20011G14KT 10SM CLR 19/08 A3017 RMK AO2
KGMJ 181535Z AUTO 19009KT 10SM CLR 18/08 A3017 RMK AO2
KGMJ 181515Z AUTO 18009KT 10SM CLR 17/08 A3017 RMK AO2
KGMJ 181455Z AUTO 17006KT 10SM CLR 16/07 A3017 RMK AO2
KGMJ 181435Z AUTO 16004KT 10SM CLR 16/07 A3017 RMK AO2
KGMJ 181415Z AUTO 00000KT 10SM CLR 15/08 A3017 RMK AO2
KGMJ 181355Z AUTO 15004KT 10SM CLR 13/07 A3016 RMK AO2
KGMJ 181335Z AUTO 00000KT 10SM CLR 12/07 A3015 RMK AO2
KGMJ 181315Z AUTO 00000KT 10SM CLR 10/06 A3015 RMK AO2
KGMJ 181255Z AUTO 00000KT 10SM CLR 11/06 A3015 RMK AO2
KGMJ 181235Z AUTO 13003KT 10SM CLR 10/06 A3015 RMK AO2
KGMJ 181215Z AUTO 00000KT 10SM CLR 09/05 A3015 RMK AO2
KGMJ 181155Z AUTO 00000KT 10SM CLR 10/05 A3015 RMK AO2
KGMJ 181135Z AUTO 00000KT 10SM CLR 10/06 A3015 RMK AO2
KGMJ 181115Z AUTO 00000KT 10SM CLR 09/06 A3015 RMK AO2
KGMJ 181055Z AUTO 00000KT 10SM CLR 10/06 A3015 RMK AO2
KGMJ 181035Z AUTO 00000KT 10SM CLR 10/06 A3014 RMK AO2
KGMJ 181015Z AUTO 00000KT 10SM CLR 09/06 A3014 RMK AO2
KGMJ 180955Z AUTO 00000KT 10SM CLR 08/06 A3014 RMK AO2
KGMJ 180935Z AUTO 00000KT 10SM CLR 06/05 A3014 RMK AO2
KGMJ 180915Z AUTO 00000KT 10SM CLR 07/06 A3014 RMK AO2
KGMJ 180855Z AUTO 00000KT 10SM CLR 07/06 A3014 RMK AO2
KGMJ 180835Z AUTO 00000KT 10SM CLR 06/06 A3016 RMK AO2
KGMJ 180815Z AUTO 00000KT 10SM CLR 07/06 A3016 RMK AO2
KGMJ 180755Z AUTO 00000KT 10SM CLR 07/06 A3016 RMK AO2
KGMJ 180735Z AUTO 00000KT 10SM CLR 07/06 A3017 RMK AO2
KGMJ 180715Z AUTO 00000KT 10SM CLR 07/06 A3017 RMK AO2
KGMJ 180655Z AUTO 00000KT 10SM CLR 07/07 A3017 RMK AO2
KGMJ 180635Z AUTO 00000KT 10SM CLR 08/07 A3017 RMK AO2
KGMJ 180615Z AUTO 00000KT 10SM CLR 08/07 A3017 RMK AO2
KGMJ 180555Z AUTO 00000KT 10SM CLR 08/07 A3017 RMK AO2
KGMJ 180535Z AUTO 00000KT 10SM CLR 08/07 A3017 RMK AO2
KGMJ 180515Z AUTO 00000KT 10SM CLR 08/07 A3018 RMK AO2
KGMJ 180455Z AUTO 00000KT 10SM CLR 09/07 A3018 RMK AO2
KGMJ 180435Z AUTO 00000KT 10SM CLR 10/07 A3018 RMK AO2
KGMJ 180415Z AUTO 00000KT 10SM CLR 11/07 A3018 RMK AO2
KGMJ 180355Z AUTO 00000KT 10SM CLR 11/08 A3018 RMK AO2
KGMJ 180335Z AUTO 00000KT 10SM CLR 11/07 A3018 RMK AO2
KGMJ 180315Z AUTO 00000KT 10SM CLR 12/07 A3018 RMK AO2
KGMJ 180255Z AUTO 00000KT 10SM CLR 12/07 A3018 RMK AO2
KGMJ 180235Z AUTO 00000KT 10SM CLR 12/08 A3018 RMK AO2
KGMJ 180215Z AUTO 00000KT 10SM CLR 12/08 A3018 RMK AO2
KGMJ 180155Z AUTO 00000KT 10SM CLR 13/08 A3017 RMK AO2
KGMJ 180135Z AUTO 00000KT 10SM CLR 14/08 A3017 RMK AO2
KGMJ 180115Z AUTO 13003KT 10SM CLR 14/08 A3017 RMK AO2
KGMJ 180055Z AUTO 00000KT 10SM CLR 15/08 A3017 RMK AO2
KGMJ 180035Z AUTO 00000KT 10SM CLR 15/08 A3016 RMK AO2
KGMJ 180015Z AUTO 00000KT 10SM CLR 16/08 A3016 RMK AO2
KGMJ 172355Z AUTO 00000KT 10SM CLR 17/08 A3016 RMK AO2
KGMJ 172335Z AUTO 00000KT 10SM CLR 19/07 A3016 RMK AO2
KGMJ 172315Z AUTO 19003KT 10SM CLR 20/08 A3016 RMK AO2
KGMJ 172255Z AUTO 19004KT 10SM CLR 21/07 A3016 RMK AO2
KGMJ 172235Z AUTO 20005KT 10SM CLR 22/07 A3016 RMK AO2
KGMJ 172215Z AUTO 20006KT 10SM CLR 22/07 A3016 RMK AO2
KGMJ 172155Z AUTO 19009KT 10SM CLR 22/06 A3017 RMK AO2
KGMJ 172135Z AUTO 19010KT 10SM CLR 22/06 A3017 RMK AO2
KGMJ 172115Z AUTO 21006KT 10SM CLR 22/07 A3018 RMK AO2
KGMJ 172055Z AUTO 18008KT 10SM CLR 22/07 A3018 RMK AO2
KGMJ 172035Z AUTO 19009KT 10SM CLR 23/07 A3019 RMK AO2
KGMJ 172015Z AUTO 19008KT 10SM CLR 22/07 A3020 RMK AO2
KGMJ 171955Z AUTO 19005KT 10SM CLR 22/07 A3020 RMK AO2
KGMJ 171935Z AUTO 19003KT 10SM CLR 22/07 A3021 RMK AO2
KGMJ 171915Z AUTO 17006KT 10SM CLR 22/07 A3023 RMK AO2